sensor_id;sensor_type;location;lat;lon;timestamp;P1;durP1;ratioP1;P2;durP2;ratioP2
19038;SDS011;9652;49.014;12.052;2023-08-08T00:01:14;3.80;;;2.77;;
19038;SDS011;9652;49.014;12.052;2023-08-08T00:03:43;3.07;;;2.47;;
19038;SDS011;9652;49.014;12.052;2023-08-08T00:06:10;2.73;;;2.40;;
19038;SDS011;9652;49.014;12.052;2023-08-08T00:08:37;2.83;;;2.30;;
19038;SDS011;9652;49.014;12.052;2023-08-08T00:11:04;2.80;;;2.50;;
19038;SDS011;9652;49.014;12.052;2023-08-08T00:13:31;2.60;;;2.40;;
19038;SDS011;9652;49.014;12.052;2023-08-08T00:15:58;2.80;;;2.10;;
19038;SDS011;9652;49.014;12.052;2023-08-08T00:18:25;2.37;;;2.10;;
19038;SDS011;9652;49.014;12.052;2023-08-08T00:20:54;3.20;;;2.77;;
19038;SDS011;9652;49.014;12.052;2023-08-08T00:23:21;2.73;;;2.40;;
19038;SDS011;9652;49.014;12.052;2023-08-08T00:25:48;2.53;;;2.33;;
19038;SDS011;9652;49.014;12.052;2023-08-08T00:28:16;4.00;;;3.67;;
19038;SDS011;9652;49.014;12.052;2023-08-08T00:30:43;2.37;;;2.13;;
19038;SDS011;9652;49.014;12.052;2023-08-08T00:33:11;2.00;;;1.90;;
19038;SDS011;9652;49.014;12.052;2023-08-08T00:35:38;2.20;;;2.00;;
19038;SDS011;9652;49.014;12.052;2023-08-08T00:38:06;2.60;;;2.10;;
19038;SDS011;9652;49.014;12.052;2023-08-08T00:40:33;3.70;;;2.30;;
19038;SDS011;9652;49.014;12.052;2023-08-08T00:43:00;2.00;;;1.90;;
19038;SDS011;9652;49.014;12.052;2023-08-08T00:45:29;2.60;;;2.40;;
19038;SDS011;9652;49.014;12.052;2023-08-08T00:47:56;2.97;;;2.57;;
19038;SDS011;9652;49.014;12.052;2023-08-08T00:50:23;2.70;;;2.50;;
19038;SDS011;9652;49.014;12.052;2023-08-08T00:52:51;2.63;;;1.77;;
19038;SDS011;9652;49.014;12.052;2023-08-08T00:55:20;3.40;;;2.23;;
19038;SDS011;9652;49.014;12.052;2023-08-08T00:57:47;2.70;;;2.47;;
19038;SDS011;9652;49.014;12.052;2023-08-08T01:00:15;3.07;;;2.43;;
19038;SDS011;9652;49.014;12.052;2023-08-08T01:02:42;2.30;;;2.10;;
19038;SDS011;9652;49.014;12.052;2023-08-08T01:05:09;2.53;;;2.30;;
19038;SDS011;9652;49.014;12.052;2023-08-08T01:07:38;3.37;;;2.80;;
19038;SDS011;9652;49.014;12.052;2023-08-08T01:10:14;2.70;;;2.50;;
19038;SDS011;9652;49.014;12.052;2023-08-08T01:12:49;2.13;;;1.93;;
19038;SDS011;9652;49.014;12.052;2023-08-08T01:15:20;2.53;;;2.10;;
19038;SDS011;9652;49.014;12.052;2023-08-08T01:17:49;2.33;;;2.20;;
19038;SDS011;9652;49.014;12.052;2023-08-08T01:20:17;2.30;;;2.10;;
19038;SDS011;9652;49.014;12.052;2023-08-08T01:22:52;3.53;;;2.60;;
19038;SDS011;9652;49.014;12.052;2023-08-08T01:25:34;2.53;;;2.33;;
19038;SDS011;9652;49.014;12.052;2023-08-08T01:28:01;2.13;;;1.90;;
19038;SDS011;9652;49.014;12.052;2023-08-08T01:30:30;2.33;;;2.13;;
19038;SDS011;9652;49.014;12.052;2023-08-08T01:32:59;2.37;;;2.17;;
19038;SDS011;9652;49.014;12.052;2023-08-08T01:35:30;2.47;;;2.00;;
19038;SDS011;9652;49.014;12.052;2023-08-08T01:38:07;1.67;;;1.57;;
19038;SDS011;9652;49.014;12.052;2023-08-08T01:40:40;2.30;;;2.10;;
19038;SDS011;9652;49.014;12.052;2023-08-08T01:43:11;2.43;;;2.23;;
19038;SDS011;9652;49.014;12.052;2023-08-08T01:45:40;1.70;;;1.60;;
19038;SDS011;9652;49.014;12.052;2023-08-08T01:48:09;3.70;;;1.87;;
19038;SDS011;9652;49.014;12.052;2023-08-08T01:50:37;1.80;;;1.70;;
19038;SDS011;9652;49.014;12.052;2023-08-08T01:53:05;1.70;;;1.60;;
19038;SDS011;9652;49.014;12.052;2023-08-08T01:55:33;2.33;;;1.90;;
19038;SDS011;9652;49.014;12.052;2023-08-08T01:58:01;2.30;;;1.90;;
19038;SDS011;9652;49.014;12.052;2023-08-08T02:00:28;2.23;;;1.70;;
19038;SDS011;9652;49.014;12.052;2023-08-08T02:02:56;1.70;;;1.60;;
19038;SDS011;9652;49.014;12.052;2023-08-08T02:05:23;1.97;;;1.87;;
19038;SDS011;9652;49.014;12.052;2023-08-08T02:07:50;2.17;;;1.97;;
19038;SDS011;9652;49.014;12.052;2023-08-08T02:10:17;1.80;;;1.50;;
19038;SDS011;9652;49.014;12.052;2023-08-08T02:12:45;1.60;;;1.50;;
19038;SDS011;9652;49.014;12.052;2023-08-08T02:15:14;1.77;;;1.67;;
19038;SDS011;9652;49.014;12.052;2023-08-08T02:17:41;2.07;;;1.87;;
19038;SDS011;9652;49.014;12.052;2023-08-08T02:20:10;1.90;;;1.70;;
19038;SDS011;9652;49.014;12.052;2023-08-08T02:22:39;1.60;;;1.50;;
19038;SDS011;9652;49.014;12.052;2023-08-08T02:25:08;1.60;;;1.50;;
19038;SDS011;9652;49.014;12.052;2023-08-08T02:27:35;1.90;;;1.70;;
19038;SDS011;9652;49.014;12.052;2023-08-08T02:30:02;1.93;;;1.70;;
19038;SDS011;9652;49.014;12.052;2023-08-08T02:32:31;1.77;;;1.57;;
19038;SDS011;9652;49.014;12.052;2023-08-08T02:34:58;2.20;;;1.67;;
19038;SDS011;9652;49.014;12.052;2023-08-08T02:37:26;1.60;;;1.50;;
19038;SDS011;9652;49.014;12.052;2023-08-08T02:39:53;2.60;;;1.83;;
19038;SDS011;9652;49.014;12.052;2023-08-08T02:42:20;2.30;;;1.67;;
19038;SDS011;9652;49.014;12.052;2023-08-08T02:44:47;1.50;;;1.40;;
19038;SDS011;9652;49.014;12.052;2023-08-08T02:47:14;1.50;;;1.40;;
19038;SDS011;9652;49.014;12.052;2023-08-08T02:49:43;1.47;;;1.37;;
19038;SDS011;9652;49.014;12.052;2023-08-08T02:52:11;1.70;;;1.60;;
19038;SDS011;9652;49.014;12.052;2023-08-08T02:54:38;2.03;;;1.40;;
19038;SDS011;9652;49.014;12.052;2023-08-08T02:57:05;1.77;;;1.63;;
19038;SDS011;9652;49.014;12.052;2023-08-08T02:59:35;1.47;;;1.37;;
19038;SDS011;9652;49.014;12.052;2023-08-08T03:02:05;1.90;;;1.50;;
19038;SDS011;9652;49.014;12.052;2023-08-08T03:04:34;3.27;;;1.87;;
19038;SDS011;9652;49.014;12.052;2023-08-08T03:07:05;1.77;;;1.67;;
19038;SDS011;9652;49.014;12.052;2023-08-08T03:09:34;1.87;;;1.60;;
19038;SDS011;9652;49.014;12.052;2023-08-08T03:12:02;1.47;;;1.37;;
19038;SDS011;9652;49.014;12.052;2023-08-08T03:14:32;1.37;;;1.27;;
19038;SDS011;9652;49.014;12.052;2023-08-08T03:17:00;2.53;;;1.70;;
19038;SDS011;9652;49.014;12.052;2023-08-08T03:19:27;2.27;;;1.60;;
19038;SDS011;9652;49.014;12.052;2023-08-08T03:21:57;1.70;;;1.60;;
19038;SDS011;9652;49.014;12.052;2023-08-08T03:24:26;1.70;;;1.60;;
19038;SDS011;9652;49.014;12.052;2023-08-08T03:26:53;2.20;;;1.50;;
19038;SDS011;9652;49.014;12.052;2023-08-08T03:29:20;1.80;;;1.37;;
19038;SDS011;9652;49.014;12.052;2023-08-08T03:31:48;1.87;;;1.67;;
19038;SDS011;9652;49.014;12.052;2023-08-08T03:34:16;1.63;;;1.53;;
19038;SDS011;9652;49.014;12.052;2023-08-08T03:36:43;2.20;;;1.30;;
19038;SDS011;9652;49.014;12.052;2023-08-08T03:39:11;1.27;;;1.23;;
19038;SDS011;9652;49.014;12.052;2023-08-08T03:41:39;1.53;;;1.43;;
19038;SDS011;9652;49.014;12.052;2023-08-08T03:44:06;1.70;;;1.60;;
19038;SDS011;9652;49.014;12.052;2023-08-08T03:46:34;1.60;;;1.50;;
19038;SDS011;9652;49.014;12.052;2023-08-08T03:49:01;1.63;;;1.53;;
19038;SDS011;9652;49.014;12.052;2023-08-08T03:51:27;1.70;;;1.60;;
19038;SDS011;9652;49.014;12.052;2023-08-08T03:53:56;1.50;;;1.40;;
19038;SDS011;9652;49.014;12.052;2023-08-08T03:56:23;1.77;;;1.60;;
19038;SDS011;9652;49.014;12.052;2023-08-08T03:58:51;1.77;;;1.47;;
19038;SDS011;9652;49.014;12.052;2023-08-08T04:01:18;1.47;;;1.37;;
19038;SDS011;9652;49.014;12.052;2023-08-08T04:03:46;1.50;;;1.40;;
19038;SDS011;9652;49.014;12.052;2023-08-08T04:06:13;1.97;;;1.50;;
19038;SDS011;9652;49.014;12.052;2023-08-08T04:08:40;1.60;;;1.47;;
19038;SDS011;9652;49.014;12.052;2023-08-08T04:11:07;1.73;;;1.63;;
19038;SDS011;9652;49.014;12.052;2023-08-08T04:13:34;1.60;;;1.50;;
19038;SDS011;9652;49.014;12.052;2023-08-08T04:16:03;1.60;;;1.50;;
19038;SDS011;9652;49.014;12.052;2023-08-08T04:18:30;1.70;;;1.60;;
19038;SDS011;9652;49.014;12.052;2023-08-08T04:20:57;1.50;;;1.40;;
19038;SDS011;9652;49.014;12.052;2023-08-08T04:23:24;1.83;;;1.57;;
19038;SDS011;9652;49.014;12.052;2023-08-08T04:25:51;1.80;;;1.70;;
19038;SDS011;9652;49.014;12.052;2023-08-08T04:28:19;2.23;;;1.47;;
19038;SDS011;9652;49.014;12.052;2023-08-08T04:30:46;1.60;;;1.50;;
19038;SDS011;9652;49.014;12.052;2023-08-08T04:33:15;1.80;;;1.70;;
19038;SDS011;9652;49.014;12.052;2023-08-08T04:35:42;1.40;;;1.30;;
19038;SDS011;9652;49.014;12.052;2023-08-08T04:38:09;1.30;;;1.17;;
19038;SDS011;9652;49.014;12.052;2023-08-08T04:40:36;2.33;;;1.70;;
19038;SDS011;9652;49.014;12.052;2023-08-08T04:43:03;1.60;;;1.50;;
19038;SDS011;9652;49.014;12.052;2023-08-08T04:45:30;2.00;;;1.80;;
19038;SDS011;9652;49.014;12.052;2023-08-08T04:47:57;1.70;;;1.60;;
19038;SDS011;9652;49.014;12.052;2023-08-08T04:50:25;3.03;;;1.93;;
19038;SDS011;9652;49.014;12.052;2023-08-08T04:52:53;1.50;;;1.40;;
19038;SDS011;9652;49.014;12.052;2023-08-08T04:55:20;1.60;;;1.50;;
19038;SDS011;9652;49.014;12.052;2023-08-08T04:57:47;1.73;;;1.47;;
19038;SDS011;9652;49.014;12.052;2023-08-08T05:00:14;5.43;;;2.27;;
19038;SDS011;9652;49.014;12.052;2023-08-08T05:02:42;1.60;;;1.50;;
19038;SDS011;9652;49.014;12.052;2023-08-08T05:05:09;1.63;;;1.53;;
19038;SDS011;9652;49.014;12.052;2023-08-08T05:07:37;2.30;;;1.70;;
19038;SDS011;9652;49.014;12.052;2023-08-08T05:10:05;1.93;;;1.60;;
19038;SDS011;9652;49.014;12.052;2023-08-08T05:12:32;1.90;;;1.77;;
19038;SDS011;9652;49.014;12.052;2023-08-08T05:14:59;1.40;;;1.30;;
19038;SDS011;9652;49.014;12.052;2023-08-08T05:17:29;1.83;;;1.73;;
19038;SDS011;9652;49.014;12.052;2023-08-08T05:19:57;2.07;;;1.97;;
19038;SDS011;9652;49.014;12.052;2023-08-08T05:22:24;1.47;;;1.33;;
19038;SDS011;9652;49.014;12.052;2023-08-08T05:24:53;1.83;;;1.73;;
19038;SDS011;9652;49.014;12.052;2023-08-08T05:27:20;1.50;;;1.40;;
19038;SDS011;9652;49.014;12.052;2023-08-08T05:29:47;3.00;;;1.70;;
19038;SDS011;9652;49.014;12.052;2023-08-08T05:32:14;1.53;;;1.40;;
19038;SDS011;9652;49.014;12.052;2023-08-08T05:34:41;1.60;;;1.50;;
19038;SDS011;9652;49.014;12.052;2023-08-08T05:37:08;1.50;;;1.40;;
19038;SDS011;9652;49.014;12.052;2023-08-08T05:39:35;3.43;;;1.83;;
19038;SDS011;9652;49.014;12.052;2023-08-08T05:42:04;1.70;;;1.60;;
19038;SDS011;9652;49.014;12.052;2023-08-08T05:44:32;2.00;;;1.80;;
19038;SDS011;9652;49.014;12.052;2023-08-08T05:46:59;1.80;;;1.63;;
19038;SDS011;9652;49.014;12.052;2023-08-08T05:49:26;2.17;;;1.70;;
19038;SDS011;9652;49.014;12.052;2023-08-08T05:51:53;2.80;;;1.40;;
19038;SDS011;9652;49.014;12.052;2023-08-08T05:54:20;2.27;;;1.67;;
19038;SDS011;9652;49.014;12.052;2023-08-08T05:56:47;2.73;;;1.63;;
19038;SDS011;9652;49.014;12.052;2023-08-08T05:59:15;1.30;;;1.20;;
19038;SDS011;9652;49.014;12.052;2023-08-08T06:01:42;2.00;;;1.57;;
19038;SDS011;9652;49.014;12.052;2023-08-08T06:04:10;1.40;;;1.30;;
19038;SDS011;9652;49.014;12.052;2023-08-08T06:06:37;1.50;;;1.40;;
19038;SDS011;9652;49.014;12.052;2023-08-08T06:09:04;1.67;;;1.10;;
19038;SDS011;9652;49.014;12.052;2023-08-08T06:11:31;1.83;;;1.73;;
19038;SDS011;9652;49.014;12.052;2023-08-08T06:13:58;1.93;;;1.40;;
19038;SDS011;9652;49.014;12.052;2023-08-08T06:16:26;1.63;;;1.53;;
19038;SDS011;9652;49.014;12.052;2023-08-08T06:18:54;1.50;;;1.40;;
19038;SDS011;9652;49.014;12.052;2023-08-08T06:21:21;1.60;;;1.50;;
19038;SDS011;9652;49.014;12.052;2023-08-08T06:23:48;1.67;;;1.50;;
19038;SDS011;9652;49.014;12.052;2023-08-08T06:26:17;1.27;;;1.17;;
19038;SDS011;9652;49.014;12.052;2023-08-08T06:28:46;1.40;;;1.30;;
19038;SDS011;9652;49.014;12.052;2023-08-08T06:31:13;1.40;;;1.30;;
19038;SDS011;9652;49.014;12.052;2023-08-08T06:33:42;1.37;;;1.20;;
19038;SDS011;9652;49.014;12.052;2023-08-08T06:36:09;1.80;;;1.27;;
19038;SDS011;9652;49.014;12.052;2023-08-08T06:38:36;2.07;;;1.77;;
19038;SDS011;9652;49.014;12.052;2023-08-08T06:41:03;1.53;;;1.30;;
19038;SDS011;9652;49.014;12.052;2023-08-08T06:43:30;1.47;;;1.20;;
19038;SDS011;9652;49.014;12.052;2023-08-08T06:45:58;1.47;;;1.20;;
19038;SDS011;9652;49.014;12.052;2023-08-08T06:48:26;1.40;;;1.30;;
19038;SDS011;9652;49.014;12.052;2023-08-08T06:50:54;1.10;;;1.10;;
19038;SDS011;9652;49.014;12.052;2023-08-08T06:53:22;1.43;;;1.40;;
19038;SDS011;9652;49.014;12.052;2023-08-08T06:55:49;1.00;;;0.83;;
19038;SDS011;9652;49.014;12.052;2023-08-08T06:58:16;1.37;;;1.20;;
19038;SDS011;9652;49.014;12.052;2023-08-08T07:00:43;3.07;;;1.43;;
19038;SDS011;9652;49.014;12.052;2023-08-08T07:03:11;1.03;;;1.03;;
19038;SDS011;9652;49.014;12.052;2023-08-08T07:05:38;1.50;;;1.17;;
19038;SDS011;9652;49.014;12.052;2023-08-08T07:08:07;1.23;;;1.13;;
19038;SDS011;9652;49.014;12.052;2023-08-08T07:10:34;1.57;;;1.20;;
19038;SDS011;9652;49.014;12.052;2023-08-08T07:13:01;1.47;;;1.00;;
19038;SDS011;9652;49.014;12.052;2023-08-08T07:15:28;2.73;;;1.10;;
19038;SDS011;9652;49.014;12.052;2023-08-08T07:17:56;1.73;;;1.10;;
19038;SDS011;9652;49.014;12.052;2023-08-08T07:20:23;1.80;;;1.10;;
19038;SDS011;9652;49.014;12.052;2023-08-08T07:22:50;1.30;;;1.20;;
19038;SDS011;9652;49.014;12.052;2023-08-08T07:25:18;2.60;;;1.10;;
19038;SDS011;9652;49.014;12.052;2023-08-08T07:27:45;1.23;;;1.10;;
19038;SDS011;9652;49.014;12.052;2023-08-08T07:30:13;2.47;;;1.33;;
19038;SDS011;9652;49.014;12.052;2023-08-08T07:32:40;2.10;;;1.10;;
19038;SDS011;9652;49.014;12.052;2023-08-08T07:35:08;0.90;;;0.90;;
19038;SDS011;9652;49.014;12.052;2023-08-08T07:37:35;2.27;;;1.10;;
19038;SDS011;9652;49.014;12.052;2023-08-08T07:40:12;1.37;;;1.10;;
19038;SDS011;9652;49.014;12.052;2023-08-08T07:42:44;2.43;;;1.33;;
19038;SDS011;9652;49.014;12.052;2023-08-08T07:45:11;1.27;;;1.00;;
19038;SDS011;9652;49.014;12.052;2023-08-08T07:47:39;1.17;;;1.07;;
19038;SDS011;9652;49.014;12.052;2023-08-08T07:50:06;1.10;;;1.00;;
19038;SDS011;9652;49.014;12.052;2023-08-08T07:52:34;1.13;;;0.90;;
19038;SDS011;9652;49.014;12.052;2023-08-08T07:55:02;1.03;;;0.80;;
19038;SDS011;9652;49.014;12.052;2023-08-08T07:57:29;1.40;;;1.00;;
19038;SDS011;9652;49.014;12.052;2023-08-08T08:00:01;1.23;;;0.90;;
19038;SDS011;9652;49.014;12.052;2023-08-08T08:02:37;1.33;;;1.00;;
19038;SDS011;9652;49.014;12.052;2023-08-08T08:05:05;0.93;;;0.90;;
19038;SDS011;9652;49.014;12.052;2023-08-08T08:07:33;0.70;;;0.70;;
19038;SDS011;9652;49.014;12.052;2023-08-08T08:10:01;1.47;;;0.93;;
19038;SDS011;9652;49.014;12.052;2023-08-08T08:12:29;0.90;;;0.80;;
19038;SDS011;9652;49.014;12.052;2023-08-08T08:14:57;1.90;;;0.80;;
19038;SDS011;9652;49.014;12.052;2023-08-08T08:17:26;2.70;;;1.20;;
19038;SDS011;9652;49.014;12.052;2023-08-08T08:19:53;1.43;;;0.70;;
19038;SDS011;9652;49.014;12.052;2023-08-08T08:22:21;1.37;;;0.87;;
19038;SDS011;9652;49.014;12.052;2023-08-08T08:24:48;0.90;;;0.70;;
19038;SDS011;9652;49.014;12.052;2023-08-08T08:27:15;0.97;;;0.73;;
19038;SDS011;9652;49.014;12.052;2023-08-08T08:29:43;1.37;;;0.80;;
19038;SDS011;9652;49.014;12.052;2023-08-08T08:32:10;1.37;;;0.73;;
19038;SDS011;9652;49.014;12.052;2023-08-08T08:34:39;0.93;;;0.80;;
19038;SDS011;9652;49.014;12.052;2023-08-08T08:37:06;0.80;;;0.80;;
19038;SDS011;9652;49.014;12.052;2023-08-08T08:39:33;0.70;;;0.60;;
19038;SDS011;9652;49.014;12.052;2023-08-08T08:42:01;1.40;;;0.90;;
19038;SDS011;9652;49.014;12.052;2023-08-08T08:44:31;1.00;;;0.90;;
19038;SDS011;9652;49.014;12.052;2023-08-08T08:46:59;1.57;;;0.90;;
19038;SDS011;9652;49.014;12.052;2023-08-08T08:49:29;1.53;;;0.90;;
19038;SDS011;9652;49.014;12.052;2023-08-08T08:51:59;3.03;;;0.90;;
19038;SDS011;9652;49.014;12.052;2023-08-08T08:54:27;1.67;;;0.90;;
19038;SDS011;9652;49.014;12.052;2023-08-08T08:56:55;2.97;;;0.87;;
19038;SDS011;9652;49.014;12.052;2023-08-08T08:59:24;1.73;;;0.73;;
19038;SDS011;9652;49.014;12.052;2023-08-08T09:01:52;1.57;;;0.90;;
19038;SDS011;9652;49.014;12.052;2023-08-08T09:04:20;1.60;;;0.80;;
19038;SDS011;9652;49.014;12.052;2023-08-08T09:06:49;1.77;;;1.00;;
19038;SDS011;9652;49.014;12.052;2023-08-08T09:09:19;1.20;;;0.83;;
19038;SDS011;9652;49.014;12.052;2023-08-08T09:11:47;1.50;;;1.00;;
19038;SDS011;9652;49.014;12.052;2023-08-08T09:14:20;1.00;;;0.80;;
19038;SDS011;9652;49.014;12.052;2023-08-08T09:16:51;2.70;;;0.97;;
19038;SDS011;9652;49.014;12.052;2023-08-08T09:19:19;1.03;;;0.83;;
19038;SDS011;9652;49.014;12.052;2023-08-08T09:21:47;2.07;;;1.10;;
19038;SDS011;9652;49.014;12.052;2023-08-08T09:24:16;1.73;;;0.87;;
19038;SDS011;9652;49.014;12.052;2023-08-08T09:26:45;1.47;;;0.80;;
19038;SDS011;9652;49.014;12.052;2023-08-08T09:29:12;1.80;;;0.90;;
19038;SDS011;9652;49.014;12.052;2023-08-08T09:31:40;3.40;;;1.17;;
19038;SDS011;9652;49.014;12.052;2023-08-08T09:34:08;0.80;;;0.70;;
19038;SDS011;9652;49.014;12.052;2023-08-08T09:36:35;2.27;;;0.90;;
19038;SDS011;9652;49.014;12.052;2023-08-08T09:39:03;2.57;;;1.00;;
19038;SDS011;9652;49.014;12.052;2023-08-08T09:41:32;1.73;;;0.83;;
19038;SDS011;9652;49.014;12.052;2023-08-08T09:43:59;1.43;;;0.70;;
19038;SDS011;9652;49.014;12.052;2023-08-08T09:46:29;1.33;;;0.80;;
19038;SDS011;9652;49.014;12.052;2023-08-08T09:48:57;1.10;;;0.73;;
19038;SDS011;9652;49.014;12.052;2023-08-08T09:51:24;0.87;;;0.80;;
19038;SDS011;9652;49.014;12.052;2023-08-08T09:53:53;0.87;;;0.60;;
19038;SDS011;9652;49.014;12.052;2023-08-08T09:56:21;1.33;;;0.90;;
19038;SDS011;9652;49.014;12.052;2023-08-08T09:58:52;1.60;;;0.60;;
19038;SDS011;9652;49.014;12.052;2023-08-08T10:01:19;1.20;;;0.83;;
19038;SDS011;9652;49.014;12.052;2023-08-08T10:03:47;0.80;;;0.60;;
19038;SDS011;9652;49.014;12.052;2023-08-08T10:06:17;0.70;;;0.60;;
19038;SDS011;9652;49.014;12.052;2023-08-08T10:08:45;1.03;;;0.53;;
19038;SDS011;9652;49.014;12.052;2023-08-08T10:11:12;1.37;;;0.80;;
19038;SDS011;9652;49.014;12.052;2023-08-08T10:13:47;1.07;;;0.80;;
19038;SDS011;9652;49.014;12.052;2023-08-08T10:16:17;4.10;;;0.50;;
19038;SDS011;9652;49.014;12.052;2023-08-08T10:18:44;0.90;;;0.60;;
19038;SDS011;9652;49.014;12.052;2023-08-08T10:21:20;1.27;;;0.80;;
19038;SDS011;9652;49.014;12.052;2023-08-08T10:24:00;3.03;;;0.73;;
19038;SDS011;9652;49.014;12.052;2023-08-08T10:26:29;3.73;;;0.73;;
19038;SDS011;9652;49.014;12.052;2023-08-08T10:28:57;1.13;;;0.70;;
19038;SDS011;9652;49.014;12.052;2023-08-08T10:31:32;0.97;;;0.60;;
19038;SDS011;9652;49.014;12.052;2023-08-08T10:34:01;1.80;;;1.00;;
19038;SDS011;9652;49.014;12.052;2023-08-08T10:36:44;1.57;;;0.70;;
19038;SDS011;9652;49.014;12.052;2023-08-08T10:39:15;1.40;;;0.90;;
19038;SDS011;9652;49.014;12.052;2023-08-08T10:41:47;0.83;;;0.60;;
19038;SDS011;9652;49.014;12.052;2023-08-08T10:44:22;1.17;;;0.73;;
19038;SDS011;9652;49.014;12.052;2023-08-08T10:46:52;0.90;;;0.77;;
19038;SDS011;9652;49.014;12.052;2023-08-08T10:49:20;2.80;;;0.77;;
19038;SDS011;9652;49.014;12.052;2023-08-08T10:51:48;1.33;;;0.83;;
19038;SDS011;9652;49.014;12.052;2023-08-08T10:54:18;1.40;;;0.70;;
19038;SDS011;9652;49.014;12.052;2023-08-08T10:56:50;1.23;;;0.70;;
19038;SDS011;9652;49.014;12.052;2023-08-08T10:59:19;1.20;;;0.90;;
19038;SDS011;9652;49.014;12.052;2023-08-08T11:01:49;3.63;;;0.93;;
19038;SDS011;9652;49.014;12.052;2023-08-08T11:04:19;1.53;;;0.80;;
19038;SDS011;9652;49.014;12.052;2023-08-08T11:06:48;1.00;;;0.73;;
19038;SDS011;9652;49.014;12.052;2023-08-08T11:09:16;1.40;;;0.87;;
19038;SDS011;9652;49.014;12.052;2023-08-08T11:11:44;1.37;;;0.80;;
19038;SDS011;9652;49.014;12.052;2023-08-08T11:14:12;2.50;;;0.90;;
19038;SDS011;9652;49.014;12.052;2023-08-08T11:16:41;1.43;;;0.80;;
19038;SDS011;9652;49.014;12.052;2023-08-08T11:19:11;1.47;;;0.67;;
19038;SDS011;9652;49.014;12.052;2023-08-08T11:21:41;1.07;;;0.90;;
19038;SDS011;9652;49.014;12.052;2023-08-08T11:24:11;1.10;;;0.83;;
19038;SDS011;9652;49.014;12.052;2023-08-08T11:26:39;1.00;;;0.80;;
19038;SDS011;9652;49.014;12.052;2023-08-08T11:29:10;1.93;;;1.00;;
19038;SDS011;9652;49.014;12.052;2023-08-08T11:31:37;0.60;;;0.50;;
19038;SDS011;9652;49.014;12.052;2023-08-08T11:34:07;1.27;;;0.80;;
19038;SDS011;9652;49.014;12.052;2023-08-08T11:36:38;1.60;;;0.60;;
19038;SDS011;9652;49.014;12.052;2023-08-08T11:39:06;3.37;;;0.70;;
19038;SDS011;9652;49.014;12.052;2023-08-08T11:41:35;0.70;;;0.70;;
19038;SDS011;9652;49.014;12.052;2023-08-08T11:44:03;1.30;;;0.80;;
19038;SDS011;9652;49.014;12.052;2023-08-08T11:46:32;1.77;;;0.80;;
19038;SDS011;9652;49.014;12.052;2023-08-08T11:49:02;1.37;;;1.00;;
19038;SDS011;9652;49.014;12.052;2023-08-08T11:51:31;1.63;;;1.00;;
19038;SDS011;9652;49.014;12.052;2023-08-08T11:54:01;1.57;;;1.10;;
19038;SDS011;9652;49.014;12.052;2023-08-08T11:56:32;2.13;;;0.70;;
19038;SDS011;9652;49.014;12.052;2023-08-08T11:59:00;1.20;;;0.70;;
19038;SDS011;9652;49.014;12.052;2023-08-08T12:01:28;1.17;;;0.80;;
19038;SDS011;9652;49.014;12.052;2023-08-08T12:03:57;2.40;;;1.07;;
19038;SDS011;9652;49.014;12.052;2023-08-08T12:06:30;1.53;;;0.70;;
19038;SDS011;9652;49.014;12.052;2023-08-08T12:08:57;1.57;;;1.00;;
19038;SDS011;9652;49.014;12.052;2023-08-08T12:11:27;1.05;;;0.80;;
19038;SDS011;9652;49.014;12.052;2023-08-08T12:13:58;1.33;;;0.80;;
19038;SDS011;9652;49.014;12.052;2023-08-08T12:16:27;0.80;;;0.60;;
19038;SDS011;9652;49.014;12.052;2023-08-08T12:18:56;2.07;;;0.97;;
19038;SDS011;9652;49.014;12.052;2023-08-08T12:21:23;0.73;;;0.63;;
19038;SDS011;9652;49.014;12.052;2023-08-08T12:23:50;2.53;;;0.83;;
19038;SDS011;9652;49.014;12.052;2023-08-08T12:26:18;1.63;;;0.70;;
19038;SDS011;9652;49.014;12.052;2023-08-08T12:28:46;1.33;;;0.82;;
19038;SDS011;9652;49.014;12.052;2023-08-08T12:31:15;2.08;;;1.05;;
19038;SDS011;9652;49.014;12.052;2023-08-08T12:33:42;1.67;;;0.93;;
19038;SDS011;9652;49.014;12.052;2023-08-08T12:36:10;0.82;;;0.80;;
19038;SDS011;9652;49.014;12.052;2023-08-08T12:38:38;1.67;;;0.87;;
19038;SDS011;9652;49.014;12.052;2023-08-08T12:41:06;0.83;;;0.70;;
19038;SDS011;9652;49.014;12.052;2023-08-08T12:43:35;1.43;;;1.00;;
19038;SDS011;9652;49.014;12.052;2023-08-08T12:46:03;1.53;;;1.00;;
19038;SDS011;9652;49.014;12.052;2023-08-08T12:48:30;0.90;;;0.63;;
19038;SDS011;9652;49.014;12.052;2023-08-08T12:50:58;0.52;;;0.52;;
19038;SDS011;9652;49.014;12.052;2023-08-08T12:53:25;1.43;;;0.70;;
19038;SDS011;9652;49.014;12.052;2023-08-08T12:55:52;0.77;;;0.50;;
19038;SDS011;9652;49.014;12.052;2023-08-08T12:58:19;0.68;;;0.68;;
19038;SDS011;9652;49.014;12.052;2023-08-08T13:00:46;1.10;;;0.60;;
19038;SDS011;9652;49.014;12.052;2023-08-08T13:03:14;1.25;;;0.65;;
19038;SDS011;9652;49.014;12.052;2023-08-08T13:05:41;1.10;;;0.80;;
19038;SDS011;9652;49.014;12.052;2023-08-08T13:08:09;1.40;;;1.10;;
19038;SDS011;9652;49.014;12.052;2023-08-08T13:10:38;2.35;;;0.60;;
19038;SDS011;9652;49.014;12.052;2023-08-08T13:13:05;1.10;;;1.00;;
19038;SDS011;9652;49.014;12.052;2023-08-08T13:15:33;1.10;;;0.85;;
19038;SDS011;9652;49.014;12.052;2023-08-08T13:18:01;1.58;;;0.90;;
19038;SDS011;9652;49.014;12.052;2023-08-08T13:20:29;0.80;;;0.80;;
19038;SDS011;9652;49.014;12.052;2023-08-08T13:22:56;1.35;;;1.00;;
19038;SDS011;9652;49.014;12.052;2023-08-08T13:25:23;0.82;;;0.60;;
19038;SDS011;9652;49.014;12.052;2023-08-08T13:27:50;1.98;;;0.73;;
19038;SDS011;9652;49.014;12.052;2023-08-08T13:30:17;1.17;;;0.88;;
19038;SDS011;9652;49.014;12.052;2023-08-08T13:32:46;0.80;;;0.77;;
19038;SDS011;9652;49.014;12.052;2023-08-08T13:35:13;1.65;;;0.77;;
19038;SDS011;9652;49.014;12.052;2023-08-08T13:37:42;0.60;;;0.50;;
19038;SDS011;9652;49.014;12.052;2023-08-08T13:40:11;1.45;;;0.90;;
19038;SDS011;9652;49.014;12.052;2023-08-08T13:42:38;2.65;;;1.00;;
19038;SDS011;9652;49.014;12.052;2023-08-08T13:45:05;0.82;;;0.65;;
19038;SDS011;9652;49.014;12.052;2023-08-08T13:47:34;2.63;;;1.10;;
19038;SDS011;9652;49.014;12.052;2023-08-08T13:50:01;1.30;;;0.90;;
19038;SDS011;9652;49.014;12.052;2023-08-08T13:52:28;1.00;;;0.90;;
19038;SDS011;9652;49.014;12.052;2023-08-08T13:54:59;1.23;;;0.90;;
19038;SDS011;9652;49.014;12.052;2023-08-08T13:57:28;0.82;;;0.70;;
19038;SDS011;9652;49.014;12.052;2023-08-08T13:59:55;2.78;;;0.68;;
19038;SDS011;9652;49.014;12.052;2023-08-08T14:02:22;1.85;;;0.88;;
19038;SDS011;9652;49.014;12.052;2023-08-08T14:04:49;1.02;;;0.80;;
19038;SDS011;9652;49.014;12.052;2023-08-08T14:07:18;3.22;;;0.90;;
19038;SDS011;9652;49.014;12.052;2023-08-08T14:09:46;0.80;;;0.80;;
19038;SDS011;9652;49.014;12.052;2023-08-08T14:12:15;0.77;;;0.75;;
19038;SDS011;9652;49.014;12.052;2023-08-08T14:14:42;1.30;;;0.88;;
19038;SDS011;9652;49.014;12.052;2023-08-08T14:17:09;2.97;;;0.77;;
19038;SDS011;9652;49.014;12.052;2023-08-08T14:19:36;1.45;;;0.90;;
19038;SDS011;9652;49.014;12.052;2023-08-08T14:22:04;0.98;;;0.70;;
19038;SDS011;9652;49.014;12.052;2023-08-08T14:24:31;1.23;;;0.80;;
19038;SDS011;9652;49.014;12.052;2023-08-08T14:26:58;3.60;;;1.00;;
19038;SDS011;9652;49.014;12.052;2023-08-08T14:29:27;0.93;;;0.80;;
19038;SDS011;9652;49.014;12.052;2023-08-08T14:31:54;0.77;;;0.73;;
19038;SDS011;9652;49.014;12.052;2023-08-08T14:34:27;0.90;;;0.77;;
19038;SDS011;9652;49.014;12.052;2023-08-08T14:36:55;1.02;;;0.70;;
19038;SDS011;9652;49.014;12.052;2023-08-08T14:39:23;3.30;;;0.90;;
19038;SDS011;9652;49.014;12.052;2023-08-08T14:41:51;1.00;;;0.70;;
19038;SDS011;9652;49.014;12.052;2023-08-08T14:44:18;1.25;;;0.80;;
19038;SDS011;9652;49.014;12.052;2023-08-08T14:46:46;1.08;;;0.90;;
19038;SDS011;9652;49.014;12.052;2023-08-08T14:49:14;0.80;;;0.80;;
19038;SDS011;9652;49.014;12.052;2023-08-08T14:51:41;1.33;;;0.63;;
19038;SDS011;9652;49.014;12.052;2023-08-08T14:54:08;0.68;;;0.60;;